This is the latest recevied weather packets stored in our database for station/object K4AGR-13. If no packets are shown the sender has not sent any weather packets the latest 10 day(s).
| Time | Temp. | Humidity | Pressure | Rain* | Wind** | Luminosity | Snow |
|---|---|---|---|---|---|---|---|
| 1777223795 | 28.89° C | 49% | 1012.3 hPa | 0 mm | - | 518 W/m² | - |
| 1777222583 | 29.44° C | 49% | 1012.5 hPa | 0 mm | - | 811 W/m² | - |
| 1777219861 | 28.89° C | 51% | 1012.5 hPa | 0 mm | - | 608 W/m² | - |
| 1777219255 | 28.89° C | 51% | 1012.4 hPa | 0 mm | - | 546 W/m² | - |
| 1777218950 | 28.89° C | 50% | 1012.4 hPa | 0 mm | - | 1018 W/m² | - |
| 1777218647 | 28.33° C | 51% | 1012.5 hPa | 0 mm | - | 945 W/m² | - |
| 1777217431 | 27.22° C | 55% | 1012.5 hPa | 0 mm | - | 751 W/m² | - |
| 1777217127 | 27.78° C | 54% | 1012.5 hPa | 0 mm | - | 718 W/m² | - |
| 1777216216 | 27.22° C | 57% | 1012.6 hPa | 0 mm | - | 848 W/m² | - |
| 1777215915 | 26.67° C | 58% | 1012.6 hPa | 0 mm | - | 790 W/m² | - |
| 1777215611 | 26.67° C | 59% | 1012.4 hPa | 0 mm | - | 744 W/m² | - |
| 1777213492 | 25.56° C | 65% | 1012.4 hPa | 0 mm | - | 619 W/m² | - |
| 1777213190 | 25.56° C | 66% | 1012.3 hPa | 0 mm | - | 593 W/m² | - |
| 1777212886 | 25.56° C | 66% | 1012.2 hPa | 0 mm | - | 601 W/m² | - |
| 1777210150 | 23.33° C | 77% | 1012.1 hPa | 0 mm | - | 347 W/m² | - |
| 1777209542 | 22.22° C | 80% | 1012 hPa | 0 mm | - | 258 W/m² | - |
| 1777208936 | 21.67° C | 83% | 1012.2 hPa | 0 mm | - | 221 W/m² | - |
| 1777206510 | 17.78° C | 97% | 1011.7 hPa | 0 mm | - | 114 W/m² | - |
| 1777206205 | 17.78° C | 97% | 1011.7 hPa | 0 mm | - | 109 W/m² | - |
| 1777205901 | 17.78° C | 97% | 1011.7 hPa | 0 mm | - | 82 W/m² | - |
| 1777205295 | 17.22° C | 98% | 1011.6 hPa | 0 mm | - | 52 W/m² | - |
| 1777203468 | 16.11° C | 98% | 1011.6 hPa | 0 mm | - | 45 W/m² | - |
| 1777203164 | 16.11° C | 98% | 1011.2 hPa | 0 mm | - | 40 W/m² | - |
| 1777202861 | 16.11° C | 98% | 1011.4 hPa | 0 mm | - | 30 W/m² | - |
| 1777202560 | 16.11° C | 98% | 1011.1 hPa | 0 mm | - | 23 W/m² | - |
* Rain latest hour (hover to see other rain measurements)
** Current wind speed in m/s (hover to see current wind gust speed)